N60CG MDPC-KOPF
Flight info
| Callsign | N60CG |
|---|---|
| Flight time | 3h 4m |
| Altitude | 28000 |
| Route | MALVN 2T MALVN Y396 RUMFO Y441 ZQA DEKAL9 |
| Aircraft | TBM9/L-VGDW/C |
Departure
| Time | 2026-05-07 23:11 |
|---|---|
| Airport | Punta Cana International Airport (MDPC) |
Arrival
| Time | 2026-05-08 02:15 |
|---|---|
| Airport | Miami-Opa Locka Executive Airport (KOPF) |
| Time | Latitude | Longitude | Altitude | Speed | Heading |
|---|---|---|---|---|---|
| 2026-05-07 22:57 | 18.56367 | -68.37423 | 49 ft | 0 kts | 53° |
| 2026-05-07 23:07 | 18.56360 | -68.37432 | 49 ft | 2 kts | 38° |
| 2026-05-07 23:07 | 18.56358 | -68.37434 | 49 ft | 0 kts | 27° |
| 2026-05-07 23:07 | 18.56371 | -68.37434 | 49 ft | 6 kts | 313° |
| 2026-05-07 23:08 | 18.56371 | -68.37501 | 49 ft | 12 kts | 262° |
| 2026-05-07 23:08 | 18.56358 | -68.37595 | 49 ft | 15 kts | 266° |
| 2026-05-07 23:08 | 18.56418 | -68.37636 | 50 ft | 12 kts | 343° |
| 2026-05-07 23:08 | 18.56445 | -68.37734 | 50 ft | 18 kts | 282° |
| 2026-05-07 23:09 | 18.56512 | -68.37780 | 50 ft | 8 kts | 347° |
| 2026-05-07 23:09 | 18.56522 | -68.37782 | 50 ft | 4 kts | 347° |
| 2026-05-07 23:09 | 18.56598 | -68.37777 | 49 ft | 16 kts | 39° |
| 2026-05-07 23:09 | 18.56631 | -68.37626 | 49 ft | 36 kts | 85° |
| 2026-05-07 23:10 | 18.56672 | -68.37191 | 48 ft | 83 kts | 85° |
| 2026-05-07 23:10 | 18.56718 | -68.36445 | 90 ft | 117 kts | 87° |
| 2026-05-07 23:10 | 18.56745 | -68.35550 | 360 ft | 123 kts | 88° |
| 2026-05-07 23:10 | 18.56764 | -68.34600 | 635 ft | 134 kts | 91° |
| 2026-05-07 23:11 | 18.56707 | -68.33614 | 976 ft | 138 kts | 90° |
| 2026-05-07 23:11 | 18.56952 | -68.32674 | 1354 ft | 134 kts | 72° |
| 2026-05-07 23:11 | 18.57110 | -68.31699 | 1702 ft | 136 kts | 84° |
| 2026-05-07 23:11 | 18.57205 | -68.30710 | 2080 ft | 135 kts | 85° |
| 2026-05-07 23:12 | 18.57070 | -68.29732 | 2461 ft | 138 kts | 111° |
| 2026-05-07 23:12 | 18.56533 | -68.28887 | 2834 ft | 141 kts | 135° |
| 2026-05-07 23:12 | 18.55801 | -68.28193 | 3242 ft | 141 kts | 134° |
| 2026-05-07 23:12 | 18.55071 | -68.27470 | 3564 ft | 145 kts | 135° |
| 2026-05-07 23:13 | 18.54325 | -68.26743 | 3949 ft | 148 kts | 135° |
| 2026-05-07 23:13 | 18.53474 | -68.26135 | 4344 ft | 150 kts | 158° |
| 2026-05-07 23:13 | 18.52428 | -68.25981 | 4740 ft | 155 kts | 183° |
| 2026-05-07 23:13 | 18.51405 | -68.26334 | 5136 ft | 157 kts | 210° |
| 2026-05-07 23:14 | 18.50579 | -68.27098 | 5529 ft | 159 kts | 223° |
| 2026-05-07 23:14 | 18.49773 | -68.27902 | 5926 ft | 160 kts | 222° |
| 2026-05-07 23:14 | 18.48963 | -68.28715 | 6329 ft | 161 kts | 223° |
| 2026-05-07 23:14 | 18.48151 | -68.29535 | 6723 ft | 162 kts | 223° |
| 2026-05-07 23:15 | 18.47464 | -68.30468 | 7077 ft | 163 kts | 248° |
| 2026-05-07 23:15 | 18.47251 | -68.31622 | 7448 ft | 164 kts | 269° |
| 2026-05-07 23:15 | 18.47216 | -68.32826 | 7822 ft | 165 kts | 268° |
| 2026-05-07 23:15 | 18.47169 | -68.34037 | 8206 ft | 166 kts | 269° |
| 2026-05-07 23:16 | 18.47126 | -68.35251 | 8598 ft | 166 kts | 269° |
| 2026-05-07 23:16 | 18.47083 | -68.36469 | 8985 ft | 167 kts | 269° |
| 2026-05-07 23:16 | 18.47040 | -68.37698 | 9371 ft | 168 kts | 269° |
| 2026-05-07 23:16 | 18.46996 | -68.38931 | 9773 ft | 168 kts | 270° |
| 2026-05-07 23:17 | 18.46953 | -68.40154 | 10151 ft | 169 kts | 270° |
| 2026-05-07 23:17 | 18.46907 | -68.41410 | 10583 ft | 170 kts | 270° |
| 2026-05-07 23:17 | 18.46864 | -68.42655 | 11012 ft | 171 kts | 270° |
| 2026-05-07 23:17 | 18.46821 | -68.43889 | 11392 ft | 171 kts | 270° |
| 2026-05-07 23:18 | 18.46775 | -68.45145 | 11779 ft | 172 kts | 271° |
| 2026-05-07 23:18 | 18.46730 | -68.46408 | 12170 ft | 173 kts | 271° |
| 2026-05-07 23:18 | 18.46685 | -68.47678 | 12558 ft | 173 kts | 270° |
| 2026-05-07 23:18 | 18.46638 | -68.48933 | 12958 ft | 175 kts | 271° |
| 2026-05-07 23:19 | 18.46593 | -68.50228 | 13352 ft | 175 kts | 271° |
| 2026-05-07 23:19 | 18.46548 | -68.51518 | 13747 ft | 176 kts | 271° |
| 2026-05-07 23:19 | 18.46501 | -68.52814 | 14135 ft | 177 kts | 271° |
| 2026-05-07 23:19 | 18.46462 | -68.54119 | 14501 ft | 178 kts | 275° |
| 2026-05-07 23:20 | 18.46746 | -68.55372 | 14849 ft | 176 kts | 297° |
| 2026-05-07 23:20 | 18.47287 | -68.56516 | 15188 ft | 177 kts | 298° |
| 2026-05-07 23:20 | 18.47829 | -68.57691 | 15543 ft | 179 kts | 298° |
| 2026-05-07 23:20 | 18.48381 | -68.58879 | 15892 ft | 181 kts | 299° |
| 2026-05-07 23:21 | 18.48939 | -68.60072 | 16250 ft | 182 kts | 299° |
| 2026-05-07 23:21 | 18.49501 | -68.61279 | 16589 ft | 184 kts | 299° |
| 2026-05-07 23:21 | 18.50071 | -68.62498 | 16942 ft | 186 kts | 299° |
| 2026-05-07 23:21 | 18.50641 | -68.63726 | 17315 ft | 187 kts | 299° |
| 2026-05-07 23:22 | 18.51219 | -68.64967 | 17655 ft | 189 kts | 299° |
| 2026-05-07 23:22 | 18.51802 | -68.66218 | 18000 ft | 191 kts | 299° |
| 2026-05-07 23:22 | 18.52382 | -68.67462 | 18359 ft | 192 kts | 299° |
| 2026-05-07 23:22 | 18.52972 | -68.68732 | 18667 ft | 194 kts | 299° |
| 2026-05-07 23:23 | 18.53571 | -68.70016 | 18966 ft | 196 kts | 299° |
| 2026-05-07 23:23 | 18.54173 | -68.71309 | 19268 ft | 197 kts | 299° |
| 2026-05-07 23:23 | 18.54780 | -68.72614 | 19581 ft | 199 kts | 299° |
| 2026-05-07 23:23 | 18.55391 | -68.73928 | 19901 ft | 200 kts | 299° |
| 2026-05-07 23:24 | 18.56009 | -68.75255 | 20204 ft | 202 kts | 300° |
| 2026-05-07 23:24 | 18.56629 | -68.76591 | 20505 ft | 204 kts | 300° |
| 2026-05-07 23:24 | 18.57256 | -68.77936 | 20809 ft | 205 kts | 300° |
| 2026-05-07 23:24 | 18.57888 | -68.79298 | 21138 ft | 207 kts | 300° |
| 2026-05-07 23:25 | 18.58523 | -68.80664 | 21439 ft | 208 kts | 300° |
| 2026-05-07 23:25 | 18.59162 | -68.82039 | 21750 ft | 210 kts | 300° |
| 2026-05-07 23:25 | 18.59797 | -68.83408 | 22062 ft | 211 kts | 300° |
| 2026-05-07 23:25 | 18.60448 | -68.84808 | 22380 ft | 213 kts | 300° |
| 2026-05-07 23:26 | 18.61102 | -68.86216 | 22692 ft | 215 kts | 300° |
| 2026-05-07 23:26 | 18.61762 | -68.87638 | 23023 ft | 216 kts | 300° |
| 2026-05-07 23:26 | 18.62424 | -68.89065 | 23340 ft | 218 kts | 300° |
| 2026-05-07 23:26 | 18.63092 | -68.90506 | 23649 ft | 219 kts | 300° |
| 2026-05-07 23:27 | 18.64437 | -68.93408 | 24223 ft | 221 kts | 301° |
| 2026-05-07 23:27 | 18.65111 | -68.94861 | 24504 ft | 221 kts | 301° |
| 2026-05-07 23:27 | 18.65785 | -68.96316 | 24794 ft | 221 kts | 301° |
| 2026-05-07 23:28 | 18.66461 | -68.97776 | 25085 ft | 221 kts | 301° |
| 2026-05-07 23:28 | 18.67136 | -68.99234 | 25374 ft | 221 kts | 301° |
| 2026-05-07 23:28 | 18.67813 | -69.00694 | 25669 ft | 222 kts | 301° |
| 2026-05-07 23:28 | 18.68490 | -69.02157 | 25955 ft | 222 kts | 301° |
| 2026-05-07 23:29 | 18.69168 | -69.03622 | 26252 ft | 222 kts | 301° |
| 2026-05-07 23:29 | 18.69847 | -69.05088 | 26551 ft | 222 kts | 302° |
| 2026-05-07 23:29 | 18.70525 | -69.06555 | 26842 ft | 223 kts | 302° |
| 2026-05-07 23:29 | 18.71198 | -69.08011 | 27110 ft | 224 kts | 302° |
| 2026-05-07 23:30 | 18.71880 | -69.09487 | 27400 ft | 224 kts | 302° |
| 2026-05-07 23:30 | 18.72564 | -69.10965 | 27681 ft | 224 kts | 302° |
| 2026-05-07 23:30 | 18.73249 | -69.12447 | 27953 ft | 225 kts | 302° |
| 2026-05-07 23:30 | 18.73950 | -69.13960 | 28035 ft | 235 kts | 302° |
| 2026-05-07 23:31 | 18.74686 | -69.15545 | 28052 ft | 246 kts | 302° |
| 2026-05-07 23:31 | 18.75451 | -69.17204 | 28053 ft | 256 kts | 301° |
| 2026-05-07 23:31 | 18.76243 | -69.18925 | 28050 ft | 265 kts | 301° |
| 2026-05-07 23:31 | 18.77060 | -69.20697 | 28051 ft | 272 kts | 301° |
| 2026-05-07 23:32 | 18.77897 | -69.22512 | 28051 ft | 278 kts | 301° |
| 2026-05-07 23:32 | 18.78749 | -69.24362 | 28050 ft | 283 kts | 301° |
| 2026-05-07 23:32 | 18.79616 | -69.26244 | 28050 ft | 286 kts | 301° |
| 2026-05-07 23:32 | 18.80493 | -69.28146 | 28046 ft | 290 kts | 301° |
| 2026-05-07 23:33 | 18.81384 | -69.30079 | 28047 ft | 295 kts | 301° |
| 2026-05-07 23:33 | 18.82286 | -69.32039 | 28046 ft | 299 kts | 300° |
| 2026-05-07 23:33 | 18.84111 | -69.36004 | 28046 ft | 304 kts | 300° |
| 2026-05-07 23:34 | 18.85969 | -69.40044 | 28042 ft | 308 kts | 300° |
| 2026-05-07 23:34 | 18.87848 | -69.44131 | 28043 ft | 310 kts | 300° |
| 2026-05-07 23:35 | 18.89734 | -69.48239 | 28041 ft | 311 kts | 300° |
| 2026-05-07 23:35 | 18.91626 | -69.52361 | 28042 ft | 312 kts | 300° |
| 2026-05-07 23:36 | 18.93512 | -69.56471 | 28037 ft | 313 kts | 300° |
| 2026-05-07 23:36 | 18.95412 | -69.60617 | 28036 ft | 313 kts | 300° |
| 2026-05-07 23:37 | 18.97312 | -69.64765 | 28030 ft | 314 kts | 300° |
| 2026-05-07 23:37 | 18.99214 | -69.68922 | 28025 ft | 314 kts | 300° |
| 2026-05-07 23:38 | 19.01116 | -69.73079 | 28018 ft | 314 kts | 300° |
| 2026-05-07 23:38 | 19.03018 | -69.77239 | 28016 ft | 314 kts | 300° |
| 2026-05-07 23:39 | 19.04920 | -69.81403 | 28014 ft | 315 kts | 300° |
| 2026-05-07 23:39 | 19.06811 | -69.85547 | 28013 ft | 315 kts | 300° |
| 2026-05-07 23:40 | 19.08715 | -69.89722 | 28008 ft | 314 kts | 300° |
| 2026-05-07 23:40 | 19.10615 | -69.93889 | 28008 ft | 315 kts | 300° |
| 2026-05-07 23:41 | 19.12515 | -69.98063 | 28009 ft | 314 kts | 300° |
| 2026-05-07 23:41 | 19.14413 | -70.02232 | 28007 ft | 315 kts | 300° |
| 2026-05-07 23:42 | 19.16297 | -70.06374 | 28009 ft | 315 kts | 300° |
| 2026-05-07 23:42 | 19.18194 | -70.10550 | 28008 ft | 314 kts | 300° |
| 2026-05-07 23:43 | 19.20088 | -70.14720 | 28008 ft | 315 kts | 300° |
| 2026-05-07 23:43 | 19.21982 | -70.18894 | 28007 ft | 315 kts | 300° |
| 2026-05-07 23:44 | 19.23877 | -70.23073 | 28006 ft | 315 kts | 300° |
| 2026-05-07 23:44 | 19.25771 | -70.27252 | 28003 ft | 315 kts | 300° |
| 2026-05-07 23:45 | 19.27662 | -70.31430 | 28000 ft | 315 kts | 300° |
| 2026-05-07 23:45 | 19.28609 | -70.33523 | 27996 ft | 315 kts | 300° |
| 2026-05-07 23:45 | 19.29541 | -70.35584 | 27997 ft | 315 kts | 300° |
| 2026-05-07 23:46 | 19.30487 | -70.37674 | 27996 ft | 315 kts | 300° |
| 2026-05-07 23:46 | 19.31432 | -70.39764 | 27994 ft | 315 kts | 300° |
| 2026-05-07 23:46 | 19.32376 | -70.41854 | 27991 ft | 315 kts | 300° |
| 2026-05-07 23:46 | 19.33323 | -70.43949 | 27989 ft | 315 kts | 300° |
| 2026-05-07 23:47 | 19.34267 | -70.46041 | 27987 ft | 315 kts | 300° |
| 2026-05-07 23:47 | 19.35212 | -70.48135 | 27988 ft | 315 kts | 300° |
| 2026-05-07 23:47 | 19.36156 | -70.50227 | 27987 ft | 315 kts | 300° |
| 2026-05-07 23:47 | 19.37102 | -70.52325 | 27985 ft | 315 kts | 300° |
| 2026-05-07 23:48 | 19.38043 | -70.54412 | 27986 ft | 315 kts | 300° |
| 2026-05-07 23:48 | 19.38987 | -70.56505 | 27988 ft | 315 kts | 300° |
| 2026-05-07 23:48 | 19.39993 | -70.58562 | 27986 ft | 312 kts | 306° |
| 2026-05-07 23:48 | 19.41262 | -70.60374 | 27987 ft | 308 kts | 315° |
| 2026-05-07 23:49 | 19.42788 | -70.61948 | 27988 ft | 305 kts | 324° |
| 2026-05-07 23:49 | 19.44484 | -70.63280 | 27988 ft | 303 kts | 328° |
| 2026-05-07 23:49 | 19.46188 | -70.64603 | 27992 ft | 304 kts | 327° |
| 2026-05-07 23:49 | 19.47891 | -70.65936 | 27988 ft | 304 kts | 327° |
| 2026-05-07 23:50 | 19.49592 | -70.67257 | 27989 ft | 304 kts | 327° |
| 2026-05-07 23:50 | 19.51302 | -70.68581 | 27991 ft | 304 kts | 327° |
| 2026-05-07 23:50 | 19.53008 | -70.69905 | 27994 ft | 304 kts | 327° |
| 2026-05-07 23:50 | 19.54718 | -70.71235 | 27990 ft | 304 kts | 327° |
| 2026-05-07 23:51 | 19.56406 | -70.72547 | 27991 ft | 305 kts | 327° |
| 2026-05-07 23:51 | 19.58116 | -70.73875 | 27992 ft | 305 kts | 327° |
| 2026-05-07 23:51 | 19.59827 | -70.75206 | 27995 ft | 305 kts | 327° |
| 2026-05-07 23:51 | 19.61543 | -70.76542 | 27991 ft | 305 kts | 327° |
| 2026-05-07 23:52 | 19.63251 | -70.77868 | 27990 ft | 305 kts | 327° |
| 2026-05-07 23:52 | 19.64965 | -70.79202 | 27992 ft | 305 kts | 327° |
| 2026-05-07 23:52 | 19.66096 | -70.80085 | 27991 ft | 304 kts | 327° |
| 2026-05-07 23:52 | 19.68381 | -70.81863 | 27994 ft | 305 kts | 327° |
| 2026-05-07 23:53 | 19.69520 | -70.82748 | 27990 ft | 305 kts | 327° |
| 2026-05-07 23:53 | 19.71234 | -70.84084 | 27994 ft | 305 kts | 327° |
| 2026-05-07 23:53 | 19.73503 | -70.85853 | 27996 ft | 305 kts | 327° |
| 2026-05-07 23:53 | 19.74661 | -70.86755 | 27994 ft | 305 kts | 327° |
| 2026-05-07 23:54 | 19.76369 | -70.88086 | 27998 ft | 305 kts | 327° |
| 2026-05-07 23:54 | 19.78080 | -70.89421 | 28000 ft | 305 kts | 327° |
| 2026-05-07 23:54 | 19.79792 | -70.90756 | 28000 ft | 305 kts | 327° |
| 2026-05-07 23:54 | 19.81485 | -70.92076 | 28002 ft | 305 kts | 327° |
| 2026-05-07 23:55 | 19.84912 | -70.94752 | 28006 ft | 306 kts | 327° |
| 2026-05-07 23:55 | 19.88342 | -70.97431 | 28009 ft | 306 kts | 327° |
| 2026-05-07 23:56 | 19.91771 | -71.00110 | 28009 ft | 306 kts | 327° |
| 2026-05-07 23:56 | 19.95194 | -71.02787 | 28011 ft | 305 kts | 327° |
| 2026-05-07 23:57 | 19.98611 | -71.05459 | 28013 ft | 305 kts | 327° |
| 2026-05-07 23:57 | 20.02024 | -71.08131 | 28015 ft | 304 kts | 327° |
| 2026-05-07 23:58 | 20.05423 | -71.10792 | 28017 ft | 303 kts | 327° |
| 2026-05-07 23:58 | 20.08801 | -71.13440 | 28017 ft | 303 kts | 327° |
| 2026-05-07 23:59 | 20.12195 | -71.16100 | 28017 ft | 303 kts | 326° |
| 2026-05-07 23:59 | 20.15589 | -71.18762 | 28019 ft | 303 kts | 326° |
| 2026-05-08 00:00 | 20.18981 | -71.21424 | 28019 ft | 302 kts | 326° |
| 2026-05-08 00:00 | 20.22367 | -71.24083 | 28021 ft | 302 kts | 326° |
| 2026-05-08 00:01 | 20.25756 | -71.26746 | 28021 ft | 302 kts | 326° |
| 2026-05-08 00:01 | 20.29142 | -71.29407 | 28021 ft | 302 kts | 326° |
| 2026-05-08 00:02 | 20.32508 | -71.32056 | 28021 ft | 302 kts | 326° |
| 2026-05-08 00:02 | 20.35894 | -71.34720 | 28021 ft | 302 kts | 326° |
| 2026-05-08 00:03 | 20.39281 | -71.37387 | 28028 ft | 302 kts | 326° |
| 2026-05-08 00:03 | 20.42461 | -71.40334 | 28027 ft | 306 kts | 313° |
| 2026-05-08 00:04 | 20.45110 | -71.43890 | 28033 ft | 306 kts | 311° |
| 2026-05-08 00:04 | 20.47749 | -71.47418 | 28034 ft | 306 kts | 311° |
| 2026-05-08 00:05 | 20.50402 | -71.50981 | 28031 ft | 306 kts | 311° |
| 2026-05-08 00:05 | 20.53052 | -71.54541 | 28033 ft | 306 kts | 311° |
| 2026-05-08 00:06 | 20.55701 | -71.58099 | 28033 ft | 306 kts | 311° |
| 2026-05-08 00:06 | 20.58350 | -71.61661 | 28031 ft | 306 kts | 311° |
| 2026-05-08 00:07 | 20.60993 | -71.65216 | 28032 ft | 305 kts | 311° |
| 2026-05-08 00:07 | 20.63635 | -71.68773 | 28029 ft | 305 kts | 311° |
| 2026-05-08 00:08 | 20.66255 | -71.72302 | 28030 ft | 305 kts | 311° |
| 2026-05-08 00:08 | 20.68888 | -71.75851 | 28030 ft | 304 kts | 312° |
| 2026-05-08 00:09 | 20.71517 | -71.79397 | 28032 ft | 304 kts | 312° |
| 2026-05-08 00:09 | 20.74138 | -71.82934 | 28033 ft | 303 kts | 312° |
| 2026-05-08 00:10 | 20.76755 | -71.86467 | 28030 ft | 303 kts | 312° |
| 2026-05-08 00:10 | 20.79349 | -71.89972 | 28031 ft | 302 kts | 312° |
| 2026-05-08 00:11 | 20.81959 | -71.93500 | 28031 ft | 302 kts | 312° |
| 2026-05-08 00:11 | 20.84561 | -71.97021 | 28032 ft | 302 kts | 312° |
| 2026-05-08 00:12 | 20.87160 | -72.00539 | 28029 ft | 301 kts | 312° |
| 2026-05-08 00:12 | 20.89758 | -72.04058 | 28030 ft | 301 kts | 312° |
| 2026-05-08 00:13 | 20.92350 | -72.07571 | 28029 ft | 301 kts | 312° |
| 2026-05-08 00:13 | 20.93647 | -72.09331 | 28032 ft | 300 kts | 312° |
| 2026-05-08 00:13 | 20.94941 | -72.11086 | 28027 ft | 300 kts | 312° |
| 2026-05-08 00:14 | 20.96237 | -72.12845 | 28025 ft | 300 kts | 312° |
| 2026-05-08 00:14 | 20.97512 | -72.14575 | 28027 ft | 300 kts | 312° |
| 2026-05-08 00:14 | 20.98804 | -72.16330 | 28027 ft | 300 kts | 312° |
| 2026-05-08 00:14 | 21.00099 | -72.18087 | 28027 ft | 300 kts | 312° |
| 2026-05-08 00:15 | 21.01392 | -72.19844 | 28027 ft | 300 kts | 312° |
| 2026-05-08 00:15 | 21.02681 | -72.21597 | 28029 ft | 300 kts | 313° |
| 2026-05-08 00:15 | 21.03970 | -72.23349 | 28029 ft | 299 kts | 312° |
| 2026-05-08 00:15 | 21.05258 | -72.25101 | 28029 ft | 299 kts | 312° |
| 2026-05-08 00:16 | 21.06545 | -72.26852 | 28029 ft | 299 kts | 312° |
| 2026-05-08 00:16 | 21.07832 | -72.28603 | 28027 ft | 299 kts | 312° |
| 2026-05-08 00:16 | 21.09118 | -72.30353 | 28031 ft | 299 kts | 312° |
| 2026-05-08 00:16 | 21.10407 | -72.32107 | 28030 ft | 299 kts | 312° |
| 2026-05-08 00:17 | 21.11692 | -72.33858 | 28029 ft | 299 kts | 313° |
| 2026-05-08 00:17 | 21.12977 | -72.35608 | 28031 ft | 299 kts | 312° |
| 2026-05-08 00:17 | 21.14247 | -72.37339 | 28031 ft | 299 kts | 312° |
| 2026-05-08 00:17 | 21.15534 | -72.39093 | 28028 ft | 299 kts | 312° |
| 2026-05-08 00:18 | 21.16814 | -72.40840 | 28028 ft | 299 kts | 312° |
| 2026-05-08 00:18 | 21.18100 | -72.42594 | 28030 ft | 299 kts | 312° |
| 2026-05-08 00:18 | 21.19385 | -72.44348 | 28028 ft | 298 kts | 312° |
| 2026-05-08 00:18 | 21.20667 | -72.46097 | 28032 ft | 298 kts | 312° |
| 2026-05-08 00:19 | 21.21948 | -72.47846 | 28029 ft | 298 kts | 312° |
| 2026-05-08 00:19 | 21.23229 | -72.49596 | 28030 ft | 298 kts | 312° |
| 2026-05-08 00:19 | 21.24509 | -72.51345 | 28030 ft | 298 kts | 312° |
| 2026-05-08 00:19 | 21.25790 | -72.53095 | 28031 ft | 298 kts | 312° |
| 2026-05-08 00:20 | 21.27072 | -72.54848 | 28031 ft | 298 kts | 312° |
| 2026-05-08 00:20 | 21.28349 | -72.56595 | 28031 ft | 298 kts | 312° |
| 2026-05-08 00:20 | 21.29629 | -72.58345 | 28031 ft | 298 kts | 312° |
| 2026-05-08 00:20 | 21.30911 | -72.60099 | 28031 ft | 298 kts | 312° |
| 2026-05-08 00:21 | 21.32190 | -72.61849 | 28031 ft | 298 kts | 312° |
| 2026-05-08 00:21 | 21.33468 | -72.63600 | 28031 ft | 298 kts | 312° |
| 2026-05-08 00:21 | 21.34732 | -72.65331 | 28031 ft | 298 kts | 312° |
| 2026-05-08 00:21 | 21.36010 | -72.67082 | 28033 ft | 298 kts | 312° |
| 2026-05-08 00:22 | 21.37288 | -72.68833 | 28031 ft | 298 kts | 312° |
| 2026-05-08 00:22 | 21.38565 | -72.70585 | 28032 ft | 298 kts | 312° |
| 2026-05-08 00:22 | 21.39842 | -72.72336 | 28031 ft | 298 kts | 312° |
| 2026-05-08 00:22 | 21.41122 | -72.74092 | 28032 ft | 298 kts | 312° |
| 2026-05-08 00:23 | 21.42398 | -72.75844 | 28030 ft | 298 kts | 312° |
| 2026-05-08 00:23 | 21.43675 | -72.77596 | 28032 ft | 298 kts | 312° |
| 2026-05-08 00:23 | 21.44951 | -72.79349 | 28034 ft | 298 kts | 312° |
| 2026-05-08 00:23 | 21.46233 | -72.81110 | 28033 ft | 298 kts | 312° |
| 2026-05-08 00:24 | 21.47507 | -72.82859 | 28030 ft | 298 kts | 312° |
| 2026-05-08 00:24 | 21.48785 | -72.84617 | 28033 ft | 298 kts | 312° |
| 2026-05-08 00:24 | 21.50061 | -72.86371 | 28032 ft | 298 kts | 312° |
| 2026-05-08 00:24 | 21.51322 | -72.88106 | 28035 ft | 298 kts | 312° |
| 2026-05-08 00:25 | 21.52598 | -72.89860 | 28033 ft | 298 kts | 312° |
| 2026-05-08 00:25 | 21.53873 | -72.91616 | 28033 ft | 298 kts | 312° |
| 2026-05-08 00:25 | 21.55148 | -72.93371 | 28033 ft | 298 kts | 312° |
| 2026-05-08 00:25 | 21.56423 | -72.95127 | 28033 ft | 298 kts | 311° |
| 2026-05-08 00:26 | 21.57698 | -72.96883 | 28034 ft | 298 kts | 312° |
| 2026-05-08 00:26 | 21.58975 | -72.98644 | 28030 ft | 298 kts | 311° |
| 2026-05-08 00:26 | 21.60250 | -73.00400 | 28033 ft | 298 kts | 311° |
| 2026-05-08 00:26 | 21.61524 | -73.02157 | 28035 ft | 298 kts | 311° |
| 2026-05-08 00:27 | 21.62798 | -73.03914 | 28033 ft | 298 kts | 311° |
| 2026-05-08 00:27 | 21.64071 | -73.05671 | 28036 ft | 298 kts | 311° |
| 2026-05-08 00:27 | 21.65345 | -73.07429 | 28034 ft | 298 kts | 311° |
| 2026-05-08 00:27 | 21.66618 | -73.09187 | 28037 ft | 298 kts | 311° |
| 2026-05-08 00:28 | 21.67891 | -73.10944 | 28031 ft | 298 kts | 311° |
| 2026-05-08 00:28 | 21.69163 | -73.12703 | 28033 ft | 298 kts | 311° |
| 2026-05-08 00:28 | 21.70436 | -73.14461 | 28030 ft | 298 kts | 311° |
| 2026-05-08 00:28 | 21.71708 | -73.16220 | 28032 ft | 298 kts | 311° |
| 2026-05-08 00:29 | 21.72979 | -73.17978 | 28031 ft | 298 kts | 311° |
| 2026-05-08 00:29 | 21.74251 | -73.19737 | 28032 ft | 298 kts | 311° |
| 2026-05-08 00:29 | 21.75522 | -73.21496 | 28033 ft | 298 kts | 311° |
| 2026-05-08 00:29 | 21.76779 | -73.23236 | 28036 ft | 298 kts | 311° |
| 2026-05-08 00:30 | 21.78050 | -73.24996 | 28031 ft | 298 kts | 311° |
| 2026-05-08 00:30 | 21.79320 | -73.26755 | 28034 ft | 298 kts | 311° |
| 2026-05-08 00:30 | 21.80589 | -73.28514 | 28036 ft | 298 kts | 311° |
| 2026-05-08 00:30 | 21.81858 | -73.30273 | 28036 ft | 297 kts | 311° |
| 2026-05-08 00:31 | 21.83127 | -73.32031 | 28036 ft | 297 kts | 311° |
| 2026-05-08 00:31 | 21.84395 | -73.33790 | 28035 ft | 297 kts | 311° |
| 2026-05-08 00:31 | 21.85663 | -73.35549 | 28038 ft | 297 kts | 311° |
| 2026-05-08 00:31 | 21.86931 | -73.37309 | 28037 ft | 297 kts | 311° |
| 2026-05-08 00:32 | 21.88198 | -73.39067 | 28040 ft | 297 kts | 311° |
| 2026-05-08 00:32 | 21.89464 | -73.40827 | 28036 ft | 297 kts | 311° |
| 2026-05-08 00:32 | 21.90731 | -73.42586 | 28037 ft | 297 kts | 311° |
| 2026-05-08 00:32 | 21.91999 | -73.44348 | 28038 ft | 297 kts | 311° |
| 2026-05-08 00:33 | 21.93265 | -73.46107 | 28039 ft | 297 kts | 311° |
| 2026-05-08 00:33 | 21.94529 | -73.47867 | 28041 ft | 297 kts | 311° |
| 2026-05-08 00:33 | 21.95780 | -73.49606 | 28039 ft | 297 kts | 311° |
| 2026-05-08 00:33 | 21.97043 | -73.51363 | 28040 ft | 297 kts | 311° |
| 2026-05-08 00:34 | 21.98308 | -73.53123 | 28034 ft | 297 kts | 311° |
| 2026-05-08 00:34 | 21.99572 | -73.54884 | 28035 ft | 297 kts | 311° |
| 2026-05-08 00:34 | 22.00836 | -73.56645 | 28036 ft | 297 kts | 311° |
| 2026-05-08 00:34 | 22.02100 | -73.58406 | 28036 ft | 297 kts | 311° |
| 2026-05-08 00:35 | 22.03367 | -73.60172 | 28034 ft | 297 kts | 311° |
| 2026-05-08 00:35 | 22.04631 | -73.61934 | 28035 ft | 297 kts | 311° |
| 2026-05-08 00:35 | 22.05895 | -73.63696 | 28035 ft | 297 kts | 311° |
| 2026-05-08 00:35 | 22.07158 | -73.65459 | 28036 ft | 297 kts | 311° |
| 2026-05-08 00:36 | 22.08421 | -73.67222 | 28038 ft | 297 kts | 311° |
| 2026-05-08 00:36 | 22.09690 | -73.68993 | 28036 ft | 297 kts | 311° |
| 2026-05-08 00:36 | 22.10954 | -73.70757 | 28036 ft | 297 kts | 311° |
| 2026-05-08 00:36 | 22.12217 | -73.72522 | 28037 ft | 297 kts | 311° |
| 2026-05-08 00:37 | 22.13480 | -73.74287 | 28038 ft | 297 kts | 311° |
| 2026-05-08 00:37 | 22.14746 | -73.76057 | 28038 ft | 297 kts | 311° |
| 2026-05-08 00:37 | 22.16009 | -73.77823 | 28040 ft | 297 kts | 311° |
| 2026-05-08 00:38 | 22.18520 | -73.81336 | 28038 ft | 297 kts | 311° |
| 2026-05-08 00:38 | 22.19785 | -73.83107 | 28037 ft | 297 kts | 311° |
| 2026-05-08 00:38 | 22.21050 | -73.84878 | 28038 ft | 297 kts | 311° |
| 2026-05-08 00:38 | 22.22312 | -73.86645 | 28036 ft | 297 kts | 311° |
| 2026-05-08 00:39 | 22.23573 | -73.88411 | 28036 ft | 297 kts | 310° |
| 2026-05-08 00:39 | 22.24408 | -73.89583 | 28038 ft | 297 kts | 310° |
| 2026-05-08 00:39 | 22.25666 | -73.91345 | 28037 ft | 297 kts | 310° |
| 2026-05-08 00:39 | 22.26925 | -73.93111 | 28040 ft | 297 kts | 310° |
| 2026-05-08 00:40 | 22.28184 | -73.94878 | 28038 ft | 297 kts | 310° |
| 2026-05-08 00:40 | 22.29443 | -73.96644 | 28037 ft | 297 kts | 310° |
| 2026-05-08 00:40 | 22.30702 | -73.98411 | 28038 ft | 297 kts | 310° |
| 2026-05-08 00:40 | 22.31960 | -74.00177 | 28038 ft | 297 kts | 310° |
| 2026-05-08 00:41 | 22.33221 | -74.01949 | 28041 ft | 297 kts | 310° |
| 2026-05-08 00:41 | 22.34481 | -74.03719 | 28038 ft | 297 kts | 310° |
| 2026-05-08 00:41 | 22.35743 | -74.05494 | 28038 ft | 297 kts | 310° |
| 2026-05-08 00:41 | 22.37000 | -74.07260 | 28038 ft | 297 kts | 310° |
| 2026-05-08 00:42 | 22.38247 | -74.09015 | 28041 ft | 297 kts | 310° |
| 2026-05-08 00:42 | 22.39506 | -74.10786 | 28041 ft | 297 kts | 310° |
| 2026-05-08 00:42 | 22.40764 | -74.12557 | 28039 ft | 297 kts | 310° |
| 2026-05-08 00:42 | 22.42026 | -74.14332 | 28039 ft | 297 kts | 310° |
| 2026-05-08 00:43 | 22.43283 | -74.16104 | 28037 ft | 297 kts | 310° |
| 2026-05-08 00:43 | 22.44540 | -74.17875 | 28037 ft | 297 kts | 310° |
| 2026-05-08 00:43 | 22.45800 | -74.19650 | 28039 ft | 297 kts | 310° |
| 2026-05-08 00:43 | 22.47056 | -74.21421 | 28038 ft | 297 kts | 310° |
| 2026-05-08 00:44 | 22.48312 | -74.23192 | 28039 ft | 297 kts | 310° |
| 2026-05-08 00:44 | 22.49554 | -74.24944 | 28037 ft | 297 kts | 310° |
| 2026-05-08 00:44 | 22.50809 | -74.26716 | 28039 ft | 297 kts | 310° |
| 2026-05-08 00:44 | 22.52064 | -74.28488 | 28037 ft | 297 kts | 310° |
| 2026-05-08 00:45 | 22.53320 | -74.30260 | 28039 ft | 297 kts | 310° |
| 2026-05-08 00:45 | 22.54578 | -74.32038 | 28036 ft | 297 kts | 310° |
| 2026-05-08 00:45 | 22.55834 | -74.33813 | 28038 ft | 297 kts | 310° |
| 2026-05-08 00:45 | 22.57091 | -74.35590 | 28037 ft | 297 kts | 310° |
| 2026-05-08 00:46 | 22.58349 | -74.37369 | 28040 ft | 297 kts | 310° |
| 2026-05-08 00:46 | 22.59588 | -74.39121 | 28038 ft | 297 kts | 310° |
| 2026-05-08 00:46 | 22.60843 | -74.40897 | 28038 ft | 297 kts | 310° |
| 2026-05-08 00:46 | 22.62097 | -74.42674 | 28037 ft | 297 kts | 310° |
| 2026-05-08 00:47 | 22.63352 | -74.44450 | 28038 ft | 297 kts | 310° |
| 2026-05-08 00:47 | 22.64607 | -74.46227 | 28039 ft | 297 kts | 310° |
| 2026-05-08 00:47 | 22.65864 | -74.48008 | 28041 ft | 297 kts | 310° |
| 2026-05-08 00:47 | 22.67120 | -74.49789 | 28035 ft | 297 kts | 310° |
| 2026-05-08 00:48 | 22.68376 | -74.51570 | 28040 ft | 297 kts | 310° |
| 2026-05-08 00:48 | 22.69630 | -74.53348 | 28038 ft | 297 kts | 310° |
| 2026-05-08 00:48 | 22.70882 | -74.55125 | 28037 ft | 297 kts | 310° |
| 2026-05-08 00:48 | 22.72132 | -74.56899 | 28040 ft | 297 kts | 310° |
| 2026-05-08 00:49 | 22.73387 | -74.58682 | 28040 ft | 297 kts | 310° |
| 2026-05-08 00:49 | 22.74637 | -74.60456 | 28039 ft | 297 kts | 310° |
| 2026-05-08 00:49 | 22.75889 | -74.62236 | 28037 ft | 297 kts | 310° |
| 2026-05-08 00:49 | 22.77128 | -74.63995 | 28036 ft | 297 kts | 310° |
| 2026-05-08 00:50 | 22.78379 | -74.65775 | 28037 ft | 297 kts | 310° |
| 2026-05-08 00:50 | 22.79634 | -74.67559 | 28036 ft | 297 kts | 310° |
| 2026-05-08 00:50 | 22.80884 | -74.69339 | 28039 ft | 297 kts | 310° |
| 2026-05-08 00:50 | 22.82135 | -74.71119 | 28038 ft | 297 kts | 309° |
| 2026-05-08 00:51 | 22.83386 | -74.72900 | 28037 ft | 297 kts | 309° |
| 2026-05-08 00:51 | 22.84640 | -74.74685 | 28038 ft | 297 kts | 309° |
| 2026-05-08 00:51 | 22.85893 | -74.76470 | 28036 ft | 297 kts | 309° |
| 2026-05-08 00:51 | 22.87140 | -74.78248 | 28040 ft | 297 kts | 309° |
| 2026-05-08 00:52 | 22.88390 | -74.80030 | 28042 ft | 297 kts | 309° |
| 2026-05-08 00:52 | 22.89642 | -74.81816 | 28042 ft | 297 kts | 309° |
| 2026-05-08 00:52 | 22.90889 | -74.83594 | 28042 ft | 297 kts | 309° |
| 2026-05-08 00:52 | 22.92125 | -74.85358 | 28043 ft | 297 kts | 309° |
| 2026-05-08 00:53 | 22.93378 | -74.87147 | 28042 ft | 297 kts | 309° |
| 2026-05-08 00:53 | 22.94629 | -74.88934 | 28043 ft | 297 kts | 309° |
| 2026-05-08 00:53 | 22.95880 | -74.90721 | 28043 ft | 298 kts | 309° |
| 2026-05-08 00:53 | 22.97135 | -74.92515 | 28043 ft | 298 kts | 309° |
| 2026-05-08 00:54 | 22.98390 | -74.94308 | 28041 ft | 298 kts | 309° |
| 2026-05-08 00:54 | 22.99642 | -74.96099 | 28041 ft | 297 kts | 309° |
| 2026-05-08 00:54 | 23.00878 | -74.97868 | 28043 ft | 297 kts | 309° |
| 2026-05-08 00:54 | 23.02131 | -74.99661 | 28039 ft | 297 kts | 309° |
| 2026-05-08 00:55 | 23.03381 | -75.01449 | 28042 ft | 297 kts | 309° |
| 2026-05-08 00:55 | 23.04633 | -75.03242 | 28041 ft | 297 kts | 309° |
| 2026-05-08 00:55 | 23.05884 | -75.05035 | 28043 ft | 297 kts | 309° |
| 2026-05-08 00:55 | 23.07132 | -75.06824 | 28044 ft | 297 kts | 309° |
| 2026-05-08 00:56 | 23.08380 | -75.08613 | 28043 ft | 297 kts | 309° |
| 2026-05-08 00:56 | 23.09708 | -75.10323 | 28044 ft | 296 kts | 315° |
| 2026-05-08 00:56 | 23.11109 | -75.11960 | 28045 ft | 296 kts | 314° |
| 2026-05-08 00:56 | 23.12479 | -75.13600 | 28045 ft | 296 kts | 314° |
| 2026-05-08 00:57 | 23.13862 | -75.15255 | 28043 ft | 297 kts | 314° |
| 2026-05-08 00:57 | 23.15261 | -75.16911 | 28042 ft | 297 kts | 314° |
| 2026-05-08 00:57 | 23.16655 | -75.18564 | 28042 ft | 297 kts | 314° |
| 2026-05-08 00:57 | 23.18047 | -75.20220 | 28043 ft | 297 kts | 314° |
| 2026-05-08 00:58 | 23.19438 | -75.21874 | 28046 ft | 296 kts | 314° |
| 2026-05-08 00:58 | 23.20829 | -75.23529 | 28045 ft | 296 kts | 314° |
| 2026-05-08 00:58 | 23.22220 | -75.25183 | 28046 ft | 296 kts | 314° |
| 2026-05-08 00:58 | 23.23610 | -75.26837 | 28043 ft | 296 kts | 314° |
| 2026-05-08 00:59 | 23.25002 | -75.28494 | 28045 ft | 296 kts | 314° |
| 2026-05-08 00:59 | 23.26390 | -75.30148 | 28047 ft | 296 kts | 314° |
| 2026-05-08 00:59 | 23.27778 | -75.31801 | 28043 ft | 296 kts | 314° |
| 2026-05-08 00:59 | 23.29165 | -75.33454 | 28044 ft | 296 kts | 314° |
| 2026-05-08 01:00 | 23.30552 | -75.35107 | 28044 ft | 296 kts | 314° |
| 2026-05-08 01:00 | 23.31941 | -75.36765 | 28044 ft | 296 kts | 314° |
| 2026-05-08 01:00 | 23.33312 | -75.38399 | 28046 ft | 296 kts | 314° |
| 2026-05-08 01:00 | 23.34698 | -75.40054 | 28046 ft | 296 kts | 314° |
| 2026-05-08 01:01 | 23.36084 | -75.41708 | 28045 ft | 296 kts | 314° |
| 2026-05-08 01:01 | 23.37473 | -75.43366 | 28043 ft | 296 kts | 314° |
| 2026-05-08 01:01 | 23.38858 | -75.45020 | 28044 ft | 296 kts | 314° |
| 2026-05-08 01:01 | 23.40243 | -75.46675 | 28045 ft | 296 kts | 314° |
| 2026-05-08 01:02 | 23.41630 | -75.48333 | 28048 ft | 295 kts | 314° |
| 2026-05-08 01:02 | 23.43013 | -75.49988 | 28050 ft | 295 kts | 314° |
| 2026-05-08 01:02 | 23.44397 | -75.51642 | 28047 ft | 295 kts | 314° |
| 2026-05-08 01:02 | 23.45761 | -75.53275 | 28047 ft | 295 kts | 314° |
| 2026-05-08 01:03 | 23.47147 | -75.54933 | 28050 ft | 295 kts | 314° |
| 2026-05-08 01:03 | 23.48531 | -75.56590 | 28051 ft | 295 kts | 314° |
| 2026-05-08 01:03 | 23.49912 | -75.58244 | 28051 ft | 295 kts | 314° |
| 2026-05-08 01:03 | 23.51295 | -75.59901 | 28047 ft | 295 kts | 314° |
| 2026-05-08 01:04 | 23.52678 | -75.61559 | 28052 ft | 295 kts | 314° |
| 2026-05-08 01:04 | 23.54055 | -75.63210 | 28054 ft | 295 kts | 314° |
| 2026-05-08 01:04 | 23.55438 | -75.64868 | 28054 ft | 295 kts | 314° |
| 2026-05-08 01:04 | 23.56815 | -75.66520 | 28050 ft | 295 kts | 314° |
| 2026-05-08 01:05 | 23.58197 | -75.68179 | 28051 ft | 295 kts | 314° |
| 2026-05-08 01:05 | 23.59573 | -75.69831 | 28051 ft | 295 kts | 314° |
| 2026-05-08 01:05 | 23.60937 | -75.71468 | 28052 ft | 295 kts | 313° |
| 2026-05-08 01:05 | 23.62315 | -75.73124 | 28055 ft | 295 kts | 313° |
| 2026-05-08 01:06 | 23.63693 | -75.74780 | 28057 ft | 295 kts | 313° |
| 2026-05-08 01:06 | 23.65073 | -75.76439 | 28059 ft | 295 kts | 313° |
| 2026-05-08 01:06 | 23.66449 | -75.78095 | 28057 ft | 295 kts | 313° |
| 2026-05-08 01:06 | 23.67826 | -75.79751 | 28057 ft | 295 kts | 313° |
| 2026-05-08 01:07 | 23.69205 | -75.81410 | 28057 ft | 294 kts | 313° |
| 2026-05-08 01:07 | 23.70581 | -75.83067 | 28058 ft | 294 kts | 313° |
| 2026-05-08 01:07 | 23.71956 | -75.84722 | 28057 ft | 294 kts | 313° |
| 2026-05-08 01:07 | 23.73330 | -75.86378 | 28052 ft | 294 kts | 313° |
| 2026-05-08 01:08 | 23.74704 | -75.88033 | 28055 ft | 294 kts | 313° |
| 2026-05-08 01:08 | 23.76077 | -75.89689 | 28055 ft | 294 kts | 313° |
| 2026-05-08 01:08 | 23.77450 | -75.91344 | 28053 ft | 294 kts | 313° |
| 2026-05-08 01:08 | 23.78823 | -75.93000 | 28055 ft | 294 kts | 313° |
| 2026-05-08 01:09 | 23.80195 | -75.94656 | 28057 ft | 294 kts | 313° |
| 2026-05-08 01:09 | 23.81567 | -75.96311 | 28055 ft | 294 kts | 313° |
| 2026-05-08 01:09 | 23.82938 | -75.97967 | 28056 ft | 294 kts | 313° |
| 2026-05-08 01:09 | 23.84309 | -75.99623 | 28057 ft | 294 kts | 313° |
| 2026-05-08 01:10 | 23.85679 | -76.01279 | 28058 ft | 294 kts | 313° |
| 2026-05-08 01:10 | 23.87031 | -76.02912 | 28056 ft | 294 kts | 313° |
| 2026-05-08 01:10 | 23.88400 | -76.04569 | 28056 ft | 294 kts | 313° |
| 2026-05-08 01:10 | 23.89772 | -76.06228 | 28057 ft | 294 kts | 313° |
| 2026-05-08 01:11 | 23.91143 | -76.07884 | 28053 ft | 293 kts | 313° |
| 2026-05-08 01:11 | 23.92513 | -76.09538 | 28054 ft | 293 kts | 313° |
| 2026-05-08 01:11 | 23.93881 | -76.11194 | 28055 ft | 293 kts | 313° |
| 2026-05-08 01:11 | 23.95247 | -76.12850 | 28052 ft | 293 kts | 313° |
| 2026-05-08 01:12 | 23.96613 | -76.14505 | 28058 ft | 293 kts | 313° |
| 2026-05-08 01:12 | 23.97983 | -76.16165 | 28055 ft | 293 kts | 313° |
| 2026-05-08 01:12 | 23.99352 | -76.17824 | 28054 ft | 293 kts | 313° |
| 2026-05-08 01:12 | 24.00700 | -76.19460 | 28054 ft | 293 kts | 313° |
| 2026-05-08 01:13 | 24.02065 | -76.21116 | 28053 ft | 293 kts | 313° |
| 2026-05-08 01:13 | 24.03429 | -76.22772 | 28053 ft | 293 kts | 313° |
| 2026-05-08 01:13 | 24.04793 | -76.24428 | 28053 ft | 293 kts | 313° |
| 2026-05-08 01:13 | 24.06156 | -76.26084 | 28055 ft | 293 kts | 313° |
| 2026-05-08 01:14 | 24.07522 | -76.27743 | 28053 ft | 293 kts | 313° |
| 2026-05-08 01:14 | 24.08887 | -76.29402 | 28054 ft | 293 kts | 313° |
| 2026-05-08 01:14 | 24.10246 | -76.31054 | 28053 ft | 293 kts | 313° |
| 2026-05-08 01:14 | 24.11607 | -76.32710 | 28055 ft | 293 kts | 313° |
| 2026-05-08 01:15 | 24.12972 | -76.34370 | 28052 ft | 293 kts | 313° |
| 2026-05-08 01:15 | 24.14333 | -76.36026 | 28053 ft | 293 kts | 313° |
| 2026-05-08 01:15 | 24.15695 | -76.37685 | 28053 ft | 293 kts | 313° |
| 2026-05-08 01:15 | 24.17055 | -76.39342 | 28055 ft | 292 kts | 313° |
| 2026-05-08 01:16 | 24.18415 | -76.40998 | 28055 ft | 292 kts | 313° |
| 2026-05-08 01:16 | 24.19775 | -76.42655 | 28053 ft | 292 kts | 313° |
| 2026-05-08 01:16 | 24.21115 | -76.44290 | 28054 ft | 292 kts | 312° |
| 2026-05-08 01:16 | 24.22474 | -76.45947 | 28054 ft | 292 kts | 312° |
| 2026-05-08 01:17 | 24.23850 | -76.47626 | 28053 ft | 292 kts | 312° |
| 2026-05-08 01:17 | 24.25193 | -76.49264 | 28053 ft | 292 kts | 312° |
| 2026-05-08 01:17 | 24.26550 | -76.50921 | 28054 ft | 292 kts | 312° |
| 2026-05-08 01:17 | 24.27908 | -76.52578 | 28055 ft | 292 kts | 312° |
| 2026-05-08 01:18 | 24.29264 | -76.54237 | 28055 ft | 292 kts | 312° |
| 2026-05-08 01:18 | 24.30621 | -76.55895 | 28057 ft | 292 kts | 312° |
| 2026-05-08 01:18 | 24.31980 | -76.57556 | 28056 ft | 292 kts | 312° |
| 2026-05-08 01:18 | 24.33336 | -76.59214 | 28058 ft | 292 kts | 312° |
| 2026-05-08 01:19 | 24.34693 | -76.60875 | 28054 ft | 292 kts | 312° |
| 2026-05-08 01:19 | 24.36047 | -76.62532 | 28054 ft | 292 kts | 312° |
| 2026-05-08 01:19 | 24.37401 | -76.64189 | 28056 ft | 292 kts | 312° |
| 2026-05-08 01:19 | 24.38753 | -76.65845 | 28055 ft | 291 kts | 312° |
| 2026-05-08 01:20 | 24.40105 | -76.67501 | 28057 ft | 291 kts | 312° |
| 2026-05-08 01:20 | 24.41441 | -76.69138 | 28053 ft | 291 kts | 312° |
| 2026-05-08 01:20 | 24.42791 | -76.70794 | 28055 ft | 291 kts | 312° |
| 2026-05-08 01:20 | 24.44140 | -76.72449 | 28055 ft | 291 kts | 312° |
| 2026-05-08 01:21 | 24.45490 | -76.74103 | 28057 ft | 291 kts | 312° |
| 2026-05-08 01:21 | 24.46838 | -76.75759 | 28054 ft | 291 kts | 312° |
| 2026-05-08 01:21 | 24.48187 | -76.77413 | 28059 ft | 291 kts | 312° |
| 2026-05-08 01:21 | 24.49535 | -76.79070 | 28056 ft | 291 kts | 312° |
| 2026-05-08 01:22 | 24.50884 | -76.80726 | 28054 ft | 291 kts | 312° |
| 2026-05-08 01:22 | 24.52231 | -76.82382 | 28054 ft | 291 kts | 312° |
| 2026-05-08 01:22 | 24.53581 | -76.84041 | 28055 ft | 291 kts | 311° |
| 2026-05-08 01:22 | 24.54926 | -76.85696 | 28057 ft | 290 kts | 312° |
| 2026-05-08 01:23 | 24.56272 | -76.87351 | 28054 ft | 290 kts | 311° |
| 2026-05-08 01:23 | 24.57602 | -76.88988 | 28056 ft | 290 kts | 311° |
| 2026-05-08 01:23 | 24.58946 | -76.90642 | 28056 ft | 290 kts | 311° |
| 2026-05-08 01:23 | 24.60289 | -76.92297 | 28056 ft | 290 kts | 311° |
| 2026-05-08 01:24 | 24.61632 | -76.93951 | 28053 ft | 290 kts | 311° |
| 2026-05-08 01:24 | 24.62974 | -76.95605 | 28055 ft | 290 kts | 311° |
| 2026-05-08 01:24 | 24.64313 | -76.97255 | 28054 ft | 290 kts | 311° |
| 2026-05-08 01:24 | 24.65657 | -76.98913 | 28054 ft | 290 kts | 311° |
| 2026-05-08 01:25 | 24.66998 | -77.00567 | 28053 ft | 290 kts | 311° |
| 2026-05-08 01:25 | 24.68338 | -77.02221 | 28054 ft | 290 kts | 311° |
| 2026-05-08 01:25 | 24.69681 | -77.03878 | 28053 ft | 290 kts | 311° |
| 2026-05-08 01:25 | 24.71023 | -77.05536 | 28053 ft | 289 kts | 311° |
| 2026-05-08 01:26 | 24.72347 | -77.07171 | 28055 ft | 289 kts | 311° |
| 2026-05-08 01:26 | 24.73685 | -77.08825 | 28055 ft | 289 kts | 311° |
| 2026-05-08 01:26 | 24.75025 | -77.10482 | 28056 ft | 289 kts | 311° |
| 2026-05-08 01:26 | 24.76362 | -77.12136 | 28057 ft | 289 kts | 311° |
| 2026-05-08 01:27 | 24.77699 | -77.13789 | 28055 ft | 289 kts | 311° |
| 2026-05-08 01:27 | 24.79038 | -77.15447 | 28056 ft | 289 kts | 311° |
| 2026-05-08 01:27 | 24.80362 | -77.17086 | 28055 ft | 289 kts | 311° |
| 2026-05-08 01:27 | 24.81697 | -77.18739 | 28060 ft | 289 kts | 311° |
| 2026-05-08 01:28 | 24.83035 | -77.20396 | 28057 ft | 289 kts | 311° |
| 2026-05-08 01:28 | 24.84371 | -77.22052 | 28058 ft | 289 kts | 311° |
| 2026-05-08 01:28 | 24.85705 | -77.23705 | 28059 ft | 289 kts | 311° |
| 2026-05-08 01:28 | 24.87026 | -77.25343 | 28061 ft | 289 kts | 311° |
| 2026-05-08 01:29 | 24.88358 | -77.26996 | 28063 ft | 288 kts | 311° |
| 2026-05-08 01:29 | 24.89690 | -77.28649 | 28063 ft | 288 kts | 311° |
| 2026-05-08 01:29 | 24.91025 | -77.30306 | 28066 ft | 289 kts | 311° |
| 2026-05-08 01:29 | 24.91923 | -77.31422 | 28067 ft | 289 kts | 311° |
| 2026-05-08 01:30 | 24.93241 | -77.33059 | 28067 ft | 289 kts | 311° |
| 2026-05-08 01:30 | 24.94574 | -77.34714 | 28065 ft | 289 kts | 311° |
| 2026-05-08 01:30 | 24.95908 | -77.36374 | 28071 ft | 288 kts | 311° |
| 2026-05-08 01:30 | 24.97238 | -77.38028 | 28070 ft | 288 kts | 311° |
| 2026-05-08 01:31 | 24.98568 | -77.39682 | 28069 ft | 288 kts | 311° |
| 2026-05-08 01:31 | 24.99896 | -77.41335 | 28071 ft | 288 kts | 311° |
| 2026-05-08 01:31 | 25.01229 | -77.42994 | 28073 ft | 288 kts | 311° |
| 2026-05-08 01:31 | 25.02482 | -77.44717 | 28074 ft | 288 kts | 303° |
| 2026-05-08 01:32 | 25.03443 | -77.46655 | 28074 ft | 289 kts | 295° |
| 2026-05-08 01:32 | 25.04215 | -77.48698 | 28073 ft | 288 kts | 293° |
| 2026-05-08 01:32 | 25.04997 | -77.50738 | 28073 ft | 288 kts | 294° |
| 2026-05-08 01:32 | 25.05780 | -77.52739 | 28072 ft | 288 kts | 294° |
| 2026-05-08 01:33 | 25.06568 | -77.54772 | 28073 ft | 288 kts | 294° |
| 2026-05-08 01:33 | 25.07352 | -77.56806 | 28074 ft | 288 kts | 294° |
| 2026-05-08 01:33 | 25.08136 | -77.58840 | 28072 ft | 288 kts | 294° |
| 2026-05-08 01:33 | 25.08921 | -77.60874 | 28073 ft | 288 kts | 294° |
| 2026-05-08 01:34 | 25.09705 | -77.62907 | 28069 ft | 288 kts | 294° |
| 2026-05-08 01:34 | 25.10487 | -77.64938 | 28067 ft | 288 kts | 294° |
| 2026-05-08 01:34 | 25.11269 | -77.66968 | 28068 ft | 287 kts | 294° |
| 2026-05-08 01:34 | 25.12053 | -77.69002 | 28067 ft | 287 kts | 294° |
| 2026-05-08 01:35 | 25.12833 | -77.71031 | 28064 ft | 287 kts | 294° |
| 2026-05-08 01:35 | 25.13607 | -77.73042 | 28064 ft | 287 kts | 294° |
| 2026-05-08 01:35 | 25.14386 | -77.75070 | 28062 ft | 287 kts | 294° |
| 2026-05-08 01:35 | 25.15167 | -77.77103 | 28062 ft | 287 kts | 294° |
| 2026-05-08 01:36 | 25.15947 | -77.79131 | 28057 ft | 287 kts | 294° |
| 2026-05-08 01:36 | 25.16725 | -77.81159 | 28056 ft | 287 kts | 294° |
| 2026-05-08 01:36 | 25.17503 | -77.83186 | 28055 ft | 287 kts | 294° |
| 2026-05-08 01:36 | 25.18280 | -77.85213 | 28054 ft | 287 kts | 294° |
| 2026-05-08 01:37 | 25.19058 | -77.87244 | 28058 ft | 287 kts | 294° |
| 2026-05-08 01:37 | 25.19835 | -77.89269 | 28058 ft | 286 kts | 294° |
| 2026-05-08 01:37 | 25.20600 | -77.91267 | 28058 ft | 286 kts | 293° |
| 2026-05-08 01:37 | 25.21377 | -77.93297 | 28060 ft | 286 kts | 293° |
| 2026-05-08 01:38 | 25.22153 | -77.95325 | 28058 ft | 286 kts | 293° |
| 2026-05-08 01:38 | 25.22927 | -77.97349 | 28056 ft | 286 kts | 293° |
| 2026-05-08 01:38 | 25.23700 | -77.99373 | 28061 ft | 286 kts | 293° |
| 2026-05-08 01:38 | 25.24474 | -78.01397 | 28059 ft | 286 kts | 293° |
| 2026-05-08 01:39 | 25.25247 | -78.03422 | 28056 ft | 286 kts | 293° |
| 2026-05-08 01:39 | 25.26021 | -78.05450 | 28057 ft | 286 kts | 293° |
| 2026-05-08 01:39 | 25.26793 | -78.07474 | 28056 ft | 286 kts | 293° |
| 2026-05-08 01:39 | 25.27563 | -78.09493 | 28059 ft | 286 kts | 293° |
| 2026-05-08 01:40 | 25.28336 | -78.11521 | 28059 ft | 286 kts | 293° |
| 2026-05-08 01:40 | 25.29099 | -78.13523 | 28058 ft | 286 kts | 293° |
| 2026-05-08 01:40 | 25.29869 | -78.15548 | 28057 ft | 286 kts | 293° |
| 2026-05-08 01:40 | 25.30640 | -78.17572 | 28056 ft | 286 kts | 293° |
| 2026-05-08 01:41 | 25.31420 | -78.19623 | 28056 ft | 286 kts | 293° |
| 2026-05-08 01:41 | 25.32179 | -78.21619 | 28056 ft | 285 kts | 293° |
| 2026-05-08 01:41 | 25.32948 | -78.23642 | 28056 ft | 285 kts | 293° |
| 2026-05-08 01:41 | 25.33718 | -78.25669 | 28057 ft | 285 kts | 293° |
| 2026-05-08 01:42 | 25.34486 | -78.27692 | 28056 ft | 285 kts | 293° |
| 2026-05-08 01:42 | 25.35252 | -78.29709 | 28057 ft | 285 kts | 293° |
| 2026-05-08 01:42 | 25.36022 | -78.31740 | 28054 ft | 285 kts | 293° |
| 2026-05-08 01:42 | 25.36787 | -78.33758 | 28058 ft | 285 kts | 293° |
| 2026-05-08 01:43 | 25.37554 | -78.35784 | 28056 ft | 285 kts | 293° |
| 2026-05-08 01:43 | 25.38320 | -78.37806 | 28054 ft | 285 kts | 293° |
| 2026-05-08 01:43 | 25.39077 | -78.39805 | 28058 ft | 285 kts | 293° |
| 2026-05-08 01:43 | 25.39844 | -78.41831 | 28053 ft | 285 kts | 293° |
| 2026-05-08 01:44 | 25.40608 | -78.43852 | 28055 ft | 285 kts | 293° |
| 2026-05-08 01:44 | 25.41372 | -78.45874 | 28053 ft | 285 kts | 292° |
| 2026-05-08 01:44 | 25.42137 | -78.47899 | 28055 ft | 285 kts | 293° |
| 2026-05-08 01:44 | 25.42901 | -78.49921 | 28053 ft | 285 kts | 292° |
| 2026-05-08 01:45 | 25.43663 | -78.51942 | 28055 ft | 285 kts | 292° |
| 2026-05-08 01:45 | 25.44428 | -78.53967 | 28053 ft | 285 kts | 292° |
| 2026-05-08 01:45 | 25.45190 | -78.55989 | 28055 ft | 285 kts | 292° |
| 2026-05-08 01:45 | 25.45942 | -78.57984 | 28057 ft | 285 kts | 292° |
| 2026-05-08 01:46 | 25.46703 | -78.60005 | 28053 ft | 285 kts | 292° |
| 2026-05-08 01:46 | 25.47464 | -78.62027 | 28056 ft | 285 kts | 292° |
| 2026-05-08 01:46 | 25.48225 | -78.64048 | 28056 ft | 285 kts | 292° |
| 2026-05-08 01:46 | 25.48985 | -78.66070 | 28054 ft | 284 kts | 292° |
| 2026-05-08 01:47 | 25.49745 | -78.68092 | 28055 ft | 284 kts | 292° |
| 2026-05-08 01:47 | 25.50507 | -78.70117 | 28055 ft | 284 kts | 292° |
| 2026-05-08 01:47 | 25.51264 | -78.72134 | 28056 ft | 284 kts | 292° |
| 2026-05-08 01:48 | 25.52784 | -78.76185 | 28052 ft | 284 kts | 292° |
| 2026-05-08 01:48 | 25.53542 | -78.78207 | 28051 ft | 284 kts | 292° |
| 2026-05-08 01:48 | 25.54300 | -78.80227 | 28052 ft | 284 kts | 292° |
| 2026-05-08 01:48 | 25.55059 | -78.82253 | 28052 ft | 284 kts | 292° |
| 2026-05-08 01:49 | 25.55807 | -78.84251 | 28052 ft | 284 kts | 292° |
| 2026-05-08 01:49 | 25.56574 | -78.86299 | 28052 ft | 284 kts | 292° |
| 2026-05-08 01:49 | 25.57320 | -78.88293 | 28054 ft | 284 kts | 292° |
| 2026-05-08 01:49 | 25.58075 | -78.90313 | 28049 ft | 284 kts | 292° |
| 2026-05-08 01:50 | 25.58832 | -78.92338 | 28053 ft | 284 kts | 292° |
| 2026-05-08 01:50 | 25.59587 | -78.94359 | 28050 ft | 284 kts | 292° |
| 2026-05-08 01:50 | 25.60341 | -78.96380 | 28055 ft | 284 kts | 292° |
| 2026-05-08 01:50 | 25.61100 | -78.98413 | 27880 ft | 289 kts | 292° |
| 2026-05-08 01:51 | 25.61883 | -79.00512 | 27486 ft | 300 kts | 292° |
| 2026-05-08 01:51 | 25.62690 | -79.02677 | 27102 ft | 306 kts | 292° |
| 2026-05-08 01:51 | 25.63504 | -79.04861 | 26722 ft | 307 kts | 292° |
| 2026-05-08 01:51 | 25.64309 | -79.07023 | 26343 ft | 307 kts | 292° |
| 2026-05-08 01:52 | 25.65126 | -79.09216 | 25966 ft | 307 kts | 292° |
| 2026-05-08 01:52 | 25.65942 | -79.11409 | 25596 ft | 308 kts | 292° |
| 2026-05-08 01:52 | 25.66758 | -79.13605 | 25230 ft | 308 kts | 292° |
| 2026-05-08 01:52 | 25.67578 | -79.15810 | 24871 ft | 309 kts | 292° |
| 2026-05-08 01:53 | 25.68397 | -79.18018 | 24514 ft | 309 kts | 292° |
| 2026-05-08 01:53 | 25.69217 | -79.20225 | 24162 ft | 310 kts | 292° |
| 2026-05-08 01:53 | 25.70036 | -79.22434 | 23818 ft | 310 kts | 292° |
| 2026-05-08 01:53 | 25.70858 | -79.24646 | 23440 ft | 310 kts | 292° |
| 2026-05-08 01:54 | 25.71675 | -79.26859 | 23029 ft | 310 kts | 292° |
| 2026-05-08 01:54 | 25.72496 | -79.29071 | 22619 ft | 310 kts | 292° |
| 2026-05-08 01:54 | 25.73303 | -79.31250 | 22224 ft | 309 kts | 292° |
| 2026-05-08 01:54 | 25.74129 | -79.33482 | 21821 ft | 309 kts | 292° |
| 2026-05-08 01:55 | 25.74934 | -79.35662 | 21435 ft | 309 kts | 292° |
| 2026-05-08 01:55 | 25.75750 | -79.37868 | 21045 ft | 308 kts | 292° |
| 2026-05-08 01:55 | 25.76564 | -79.40071 | 20659 ft | 308 kts | 292° |
| 2026-05-08 01:55 | 25.77377 | -79.42272 | 20281 ft | 307 kts | 292° |
| 2026-05-08 01:56 | 25.78186 | -79.44466 | 19907 ft | 307 kts | 292° |
| 2026-05-08 01:56 | 25.78994 | -79.46658 | 19532 ft | 307 kts | 292° |
| 2026-05-08 01:56 | 25.79800 | -79.48842 | 19176 ft | 306 kts | 292° |
| 2026-05-08 01:56 | 25.80607 | -79.51035 | 18816 ft | 306 kts | 292° |
| 2026-05-08 01:57 | 25.81403 | -79.53196 | 18467 ft | 306 kts | 292° |
| 2026-05-08 01:57 | 25.82206 | -79.55380 | 18075 ft | 305 kts | 293° |
| 2026-05-08 01:57 | 25.83011 | -79.57566 | 17668 ft | 305 kts | 292° |
| 2026-05-08 01:57 | 25.83809 | -79.59740 | 17266 ft | 305 kts | 292° |
| 2026-05-08 01:58 | 25.84614 | -79.61926 | 16872 ft | 304 kts | 292° |
| 2026-05-08 01:58 | 25.85394 | -79.64108 | 16480 ft | 304 kts | 288° |
| 2026-05-08 01:58 | 25.85599 | -79.66425 | 16090 ft | 306 kts | 264° |
| 2026-05-08 01:58 | 25.84880 | -79.68642 | 15708 ft | 309 kts | 239° |
| 2026-05-08 01:59 | 25.83475 | -79.70442 | 15333 ft | 308 kts | 231° |
| 2026-05-08 01:59 | 25.82511 | -79.72530 | 14952 ft | 304 kts | 257° |
| 2026-05-08 01:59 | 25.82473 | -79.74848 | 14581 ft | 302 kts | 281° |
| 2026-05-08 01:59 | 25.83114 | -79.77068 | 14223 ft | 301 kts | 291° |
| 2026-05-08 02:00 | 25.83900 | -79.79186 | 13872 ft | 300 kts | 292° |
| 2026-05-08 02:00 | 25.84731 | -79.81317 | 13468 ft | 300 kts | 293° |
| 2026-05-08 02:00 | 25.85572 | -79.83439 | 13068 ft | 299 kts | 293° |
| 2026-05-08 02:00 | 25.86412 | -79.85544 | 12674 ft | 298 kts | 293° |
| 2026-05-08 02:01 | 25.87256 | -79.87656 | 12281 ft | 298 kts | 294° |
| 2026-05-08 02:01 | 25.88093 | -79.89751 | 11891 ft | 295 kts | 294° |
| 2026-05-08 02:01 | 25.88906 | -79.91790 | 11512 ft | 290 kts | 294° |
| 2026-05-08 02:01 | 25.89720 | -79.93830 | 11135 ft | 287 kts | 294° |
| 2026-05-08 02:02 | 25.90525 | -79.95852 | 10764 ft | 285 kts | 294° |
| 2026-05-08 02:02 | 25.91327 | -79.97870 | 10397 ft | 284 kts | 294° |
| 2026-05-08 02:02 | 25.92122 | -79.99871 | 10039 ft | 283 kts | 294° |
| 2026-05-08 02:02 | 25.92907 | -80.01853 | 9811 ft | 279 kts | 294° |
| 2026-05-08 02:03 | 25.93687 | -80.03828 | 9426 ft | 279 kts | 294° |
| 2026-05-08 02:03 | 25.94468 | -80.05803 | 9057 ft | 279 kts | 294° |
| 2026-05-08 02:03 | 25.95248 | -80.07779 | 8690 ft | 278 kts | 294° |
| 2026-05-08 02:03 | 25.96027 | -80.09744 | 8327 ft | 277 kts | 294° |
| 2026-05-08 02:04 | 25.96799 | -80.11697 | 7972 ft | 276 kts | 294° |
| 2026-05-08 02:04 | 25.97573 | -80.13650 | 7623 ft | 275 kts | 294° |
| 2026-05-08 02:04 | 25.98342 | -80.15593 | 7264 ft | 274 kts | 294° |
| 2026-05-08 02:04 | 25.99107 | -80.17527 | 6918 ft | 273 kts | 294° |
| 2026-05-08 02:05 | 25.99858 | -80.19428 | 6576 ft | 272 kts | 294° |
| 2026-05-08 02:05 | 26.00623 | -80.21373 | 6214 ft | 270 kts | 294° |
| 2026-05-08 02:05 | 26.01370 | -80.23280 | 5852 ft | 268 kts | 294° |
| 2026-05-08 02:05 | 26.02100 | -80.25173 | 5481 ft | 266 kts | 294° |
| 2026-05-08 02:06 | 26.02808 | -80.27042 | 5131 ft | 263 kts | 294° |
| 2026-05-08 02:06 | 26.03519 | -80.28915 | 4771 ft | 261 kts | 294° |
| 2026-05-08 02:06 | 26.04209 | -80.30737 | 4395 ft | 248 kts | 294° |
| 2026-05-08 02:06 | 26.04865 | -80.32465 | 4029 ft | 239 kts | 294° |
| 2026-05-08 02:07 | 26.05513 | -80.34147 | 3660 ft | 234 kts | 294° |
| 2026-05-08 02:07 | 26.06159 | -80.35800 | 3306 ft | 232 kts | 294° |
| 2026-05-08 02:07 | 26.06769 | -80.37353 | 2936 ft | 207 kts | 293° |
| 2026-05-08 02:07 | 26.07326 | -80.38724 | 2555 ft | 183 kts | 294° |
| 2026-05-08 02:08 | 26.07719 | -80.39983 | 2177 ft | 164 kts | 270° |
| 2026-05-08 02:08 | 26.07333 | -80.41097 | 1804 ft | 154 kts | 225° |
| 2026-05-08 02:08 | 26.06436 | -80.41762 | 1698 ft | 157 kts | 211° |
| 2026-05-08 02:08 | 26.05496 | -80.42380 | 1697 ft | 157 kts | 212° |
| 2026-05-08 02:09 | 26.04549 | -80.43016 | 1702 ft | 160 kts | 212° |
| 2026-05-08 02:09 | 26.03599 | -80.43657 | 1697 ft | 158 kts | 212° |
| 2026-05-08 02:09 | 26.02654 | -80.44275 | 1698 ft | 157 kts | 212° |
| 2026-05-08 02:09 | 26.01712 | -80.44888 | 1698 ft | 157 kts | 206° |
| 2026-05-08 02:10 | 26.00646 | -80.44935 | 1693 ft | 159 kts | 159° |
| 2026-05-08 02:10 | 25.99762 | -80.44183 | 1706 ft | 162 kts | 135° |
| 2026-05-08 02:10 | 25.99102 | -80.43183 | 1713 ft | 163 kts | 126° |
| 2026-05-08 02:10 | 25.98482 | -80.42118 | 1708 ft | 164 kts | 124° |
| 2026-05-08 02:11 | 25.97861 | -80.41043 | 1706 ft | 165 kts | 124° |
| 2026-05-08 02:11 | 25.97254 | -80.39952 | 1712 ft | 167 kts | 122° |
| 2026-05-08 02:11 | 25.96635 | -80.38840 | 1709 ft | 171 kts | 125° |
| 2026-05-08 02:11 | 25.96013 | -80.37747 | 1722 ft | 160 kts | 123° |
| 2026-05-08 02:12 | 25.95487 | -80.36784 | 1653 ft | 136 kts | 125° |
| 2026-05-08 02:12 | 25.95006 | -80.35927 | 1493 ft | 123 kts | 124° |
| 2026-05-08 02:12 | 25.94572 | -80.35160 | 1350 ft | 117 kts | 124° |
| 2026-05-08 02:12 | 25.94148 | -80.34396 | 1190 ft | 114 kts | 123° |
| 2026-05-08 02:13 | 25.93746 | -80.33670 | 1048 ft | 107 kts | 125° |
| 2026-05-08 02:13 | 25.93357 | -80.32978 | 912 ft | 105 kts | 123° |
| 2026-05-08 02:13 | 25.92982 | -80.32285 | 771 ft | 103 kts | 123° |
| 2026-05-08 02:13 | 25.92611 | -80.31627 | 655 ft | 97 kts | 124° |
| 2026-05-08 02:14 | 25.92255 | -80.31012 | 555 ft | 95 kts | 122° |
| 2026-05-08 02:14 | 25.91911 | -80.30390 | 393 ft | 95 kts | 120° |
| 2026-05-08 02:14 | 25.91574 | -80.29772 | 261 ft | 90 kts | 123° |
| 2026-05-08 02:14 | 25.91239 | -80.29186 | 160 ft | 89 kts | 121° |
| 2026-05-08 02:15 | 25.90912 | -80.28610 | 41 ft | 86 kts | 122° |
| 2026-05-08 02:15 | 25.90629 | -80.28108 | 14 ft | 66 kts | 120° |
| 2026-05-08 02:15 | 25.90408 | -80.27721 | 13 ft | 54 kts | 122° |
| 2026-05-08 02:15 | 25.90224 | -80.27395 | 11 ft | 41 kts | 122° |
| 2026-05-08 02:16 | 25.90143 | -80.27224 | 11 ft | 21 kts | 111° |
| 2026-05-08 02:16 | 25.90173 | -80.27080 | 11 ft | 21 kts | 61° |
| 2026-05-08 02:16 | 25.90215 | -80.26972 | 11 ft | 15 kts | 96° |
| 2026-05-08 02:16 | 25.90177 | -80.26945 | 11 ft | 6 kts | 204° |
| 2026-05-08 02:17 | 25.90175 | -80.26946 | 11 ft | 0 kts | 204° |